createdAt,value
2023-04-04T00:01:45.662Z,102445.34
2023-04-04T00:04:12.913Z,102447.06
2023-04-04T00:06:44.665Z,102436.75
2023-04-04T00:09:14.659Z,102441.00
2023-04-04T00:11:42.483Z,102437.47
2023-04-04T00:14:09.363Z,102437.88
2023-04-04T00:16:37.082Z,102449.22
2023-04-04T00:19:03.982Z,102434.06
2023-04-04T00:21:31.136Z,102440.66
2023-04-04T00:23:58.641Z,102440.13
2023-04-04T00:26:26.749Z,102438.88
2023-04-04T00:28:53.599Z,102433.97
2023-04-04T00:31:21.217Z,102441.59
2023-04-04T00:33:48.402Z,102435.25
2023-04-04T00:36:15.314Z,102444.25
2023-04-04T00:38:42.217Z,102444.97
2023-04-04T00:41:08.993Z,102441.75
2023-04-04T00:43:36.270Z,102453.47
2023-04-04T00:46:03.964Z,102439.97
2023-04-04T00:48:30.973Z,102442.13
2023-04-04T00:50:57.950Z,102443.53
2023-04-04T00:53:24.773Z,102453.97
2023-04-04T00:55:51.561Z,102452.50
2023-04-04T00:58:19.295Z,102453.53
2023-04-04T01:00:46.665Z,102459.53
2023-04-04T01:03:14.345Z,102454.84
2023-04-04T01:05:41.882Z,102464.66
2023-04-04T01:08:09.111Z,102463.19
2023-04-04T01:10:36.232Z,102459.38
2023-04-04T01:13:03.574Z,102469.84
2023-04-04T01:15:30.992Z,102467.22
2023-04-04T01:18:00.513Z,102471.66
2023-04-04T01:20:31.024Z,102469.88
2023-04-04T01:22:59.255Z,102473.03
2023-04-04T01:25:32.395Z,102469.72
2023-04-04T01:28:06.089Z,102471.84
2023-04-04T01:30:35.999Z,102470.13
2023-04-04T01:33:16.323Z,102465.56
2023-04-04T01:36:07.778Z,102459.94
2023-04-04T01:38:43.225Z,102458.19
2023-04-04T01:41:12.180Z,102457.31
2023-04-04T01:43:46.811Z,102466.81
2023-04-04T01:46:14.786Z,102457.72
2023-04-04T01:48:42.716Z,102467.84
2023-04-04T01:51:10.690Z,102465.59
2023-04-04T01:53:37.563Z,102457.88
2023-04-04T01:56:04.969Z,102457.66
2023-04-04T01:58:35.212Z,102466.72
2023-04-04T02:01:01.999Z,102461.19
2023-04-04T02:03:28.904Z,102461.06
2023-04-04T02:05:55.756Z,102466.19
2023-04-04T02:08:22.738Z,102464.69
2023-04-04T02:10:57.766Z,102459.91
2023-04-04T02:13:25.176Z,102461.44
2023-04-04T02:15:52.784Z,102469.34
2023-04-04T02:18:20.215Z,102459.91
2023-04-04T02:20:47.016Z,102470.56
2023-04-04T02:23:13.764Z,102460.91
2023-04-04T02:25:40.590Z,102463.97
2023-04-04T02:28:09.491Z,102461.84
2023-04-04T02:30:36.279Z,102459.69
2023-04-04T02:33:04.155Z,102464.06
2023-04-04T02:35:31.351Z,102465.75
2023-04-04T02:37:58.937Z,102464.09
2023-04-04T02:40:39.840Z,102465.16
2023-04-04T02:43:07.476Z,102461.69
2023-04-04T02:45:35.446Z,102455.00
2023-04-04T02:48:10.981Z,102448.91
2023-04-04T02:50:43.432Z,102454.13
2023-04-04T02:53:13.389Z,102455.44
2023-04-04T02:55:40.176Z,102451.19
2023-04-04T02:58:07.089Z,102435.88
2023-04-04T03:00:34.005Z,102441.50
2023-04-04T03:03:01.115Z,102437.75
2023-04-04T03:05:35.798Z,102436.69
2023-04-04T03:08:03.005Z,102429.31
2023-04-04T03:10:32.586Z,102429.75
2023-04-04T03:12:59.780Z,102430.69
2023-04-04T03:15:29.044Z,102432.63
2023-04-04T03:17:56.840Z,102427.59
2023-04-04T03:20:26.687Z,102436.50
2023-04-04T03:22:53.555Z,102433.41
2023-04-04T03:25:20.782Z,102437.31
2023-04-04T03:27:47.864Z,102439.06
2023-04-04T03:30:21.234Z,102438.34
2023-04-04T03:32:48.762Z,102434.47
2023-04-04T03:35:16.330Z,102439.31
2023-04-04T03:37:43.258Z,102432.63
2023-04-04T03:40:10.261Z,102439.19
2023-04-04T03:42:37.119Z,102432.25
2023-04-04T03:45:08.604Z,102433.41
2023-04-04T03:47:36.781Z,102440.19
2023-04-04T03:50:03.840Z,102444.09
2023-04-04T03:52:32.239Z,102444.25
2023-04-04T03:54:59.080Z,102434.22
2023-04-04T03:57:27.311Z,102434.59
2023-04-04T03:59:54.574Z,102445.50
2023-04-04T04:02:22.915Z,102437.41
2023-04-04T04:04:49.725Z,102449.09
2023-04-04T04:07:16.829Z,102446.81
2023-04-04T04:09:43.601Z,102451.03
2023-04-04T04:12:10.378Z,102447.63
2023-04-04T04:14:37.638Z,102451.75
2023-04-04T04:17:04.657Z,102460.53
2023-04-04T04:19:31.413Z,102458.19
2023-04-04T04:21:58.444Z,102459.78
2023-04-04T04:24:25.436Z,102456.44
2023-04-04T04:26:52.405Z,102462.28
2023-04-04T04:29:19.968Z,102462.34
2023-04-04T04:31:46.830Z,102455.41
2023-04-04T04:34:14.097Z,102445.47
2023-04-04T04:36:42.575Z,102449.97
2023-04-04T04:39:27.280Z,102442.38
2023-04-04T04:42:06.975Z,102445.69
2023-04-04T04:44:36.823Z,102443.00
2023-04-04T04:47:04.312Z,102446.59
2023-04-04T04:49:31.172Z,102442.31
2023-04-04T04:52:00.307Z,102437.50
2023-04-04T04:54:27.294Z,102447.78
2023-04-04T04:56:55.372Z,102452.69
2023-04-04T04:59:22.618Z,102457.56
2023-04-04T05:01:49.818Z,102452.38
2023-04-04T05:04:17.863Z,102461.66
2023-04-04T05:06:57.362Z,102455.59
2023-04-04T05:09:24.535Z,102460.84
2023-04-04T05:11:51.341Z,102463.31
2023-04-04T05:14:22.101Z,102465.25
2023-04-04T05:16:56.427Z,102471.50
2023-04-04T05:19:27.971Z,102478.28
2023-04-04T05:21:57.081Z,102464.88
2023-04-04T05:24:38.747Z,102462.00
2023-04-04T05:27:06.905Z,102465.91
2023-04-04T05:29:39.856Z,102466.72
2023-04-04T05:32:07.078Z,102461.81
2023-04-04T05:34:36.221Z,102454.59
2023-04-04T05:37:07.108Z,102468.97
2023-04-04T05:39:34.598Z,102462.72
2023-04-04T05:42:05.883Z,102467.34
2023-04-04T05:44:37.329Z,102465.41
2023-04-04T05:47:05.514Z,102475.78
2023-04-04T05:49:32.502Z,102470.75
2023-04-04T05:52:01.602Z,102476.91
2023-04-04T05:54:31.329Z,102483.81
2023-04-04T05:57:01.567Z,102493.59
2023-04-04T05:59:44.393Z,102489.13
2023-04-04T06:02:14.403Z,102492.78
2023-04-04T06:04:46.205Z,102484.63
2023-04-04T06:07:19.306Z,102485.06
2023-04-04T06:09:50.998Z,102490.38
2023-04-04T06:12:19.749Z,102493.94
2023-04-04T06:15:09.599Z,102498.81
2023-04-04T06:17:37.330Z,102500.91
2023-04-04T06:20:05.354Z,102495.78
2023-04-04T06:22:35.191Z,102499.34
2023-04-04T06:25:03.078Z,102498.13
2023-04-04T06:27:30.973Z,102489.97
2023-04-04T06:30:00.153Z,102498.50
2023-04-04T06:32:28.211Z,102505.56
2023-04-04T06:34:55.224Z,102489.59
2023-04-04T06:37:43.194Z,102497.03
2023-04-04T06:40:20.069Z,102493.28
2023-04-04T06:42:52.075Z,102501.19
2023-04-04T06:45:21.015Z,102504.78
2023-04-04T06:47:51.324Z,102494.13
2023-04-04T06:50:25.058Z,102494.28
2023-04-04T06:52:52.835Z,102483.06
2023-04-04T06:55:19.971Z,102488.88
2023-04-04T06:57:47.211Z,102492.09
2023-04-04T07:00:14.736Z,102499.34
2023-04-04T07:02:41.745Z,102504.19
2023-04-04T07:05:10.171Z,102513.41
2023-04-04T07:07:37.873Z,102512.00
2023-04-04T07:10:04.877Z,102507.91
2023-04-04T07:12:32.104Z,102516.16
2023-04-04T07:14:59.059Z,102523.91
2023-04-04T07:17:26.161Z,102519.00
2023-04-04T07:19:53.633Z,102529.78
2023-04-04T07:22:20.456Z,102523.00
2023-04-04T07:24:48.476Z,102526.47
2023-04-04T07:27:15.982Z,102527.63
2023-04-04T07:29:42.683Z,102525.53
2023-04-04T07:32:09.898Z,102514.09
2023-04-04T07:34:36.991Z,102511.28
2023-04-04T07:37:03.807Z,102498.25
2023-04-04T07:39:31.461Z,102496.25
2023-04-04T07:41:58.272Z,102495.47
2023-04-04T07:44:25.258Z,102496.00
2023-04-04T07:47:02.368Z,102500.81
2023-04-04T07:49:33.652Z,102488.03
2023-04-04T07:52:03.592Z,102493.72
2023-04-04T07:54:30.638Z,102495.47
2023-04-04T07:56:58.061Z,102498.75
2023-04-04T07:59:28.971Z,102506.81
2023-04-04T08:02:00.955Z,102494.19
2023-04-04T08:04:29.161Z,102487.53
2023-04-04T08:06:57.955Z,102473.31
2023-04-04T08:09:28.689Z,102485.59
2023-04-04T08:11:59.556Z,102472.91
2023-04-04T08:14:27.261Z,102475.66
2023-04-04T08:16:54.327Z,102496.66
2023-04-04T08:19:21.222Z,102495.97
2023-04-04T08:21:51.281Z,102482.47
2023-04-04T08:24:29.560Z,102482.59
2023-04-04T08:27:05.345Z,102468.53
2023-04-04T08:29:34.434Z,102486.84
2023-04-04T08:32:03.186Z,102483.16
2023-04-04T08:34:36.198Z,102476.78
2023-04-04T08:43:01.277Z,102483.94
2023-04-04T08:45:36.328Z,102481.78
2023-04-04T08:48:12.088Z,102485.88
2023-04-04T08:51:44.696Z,102506.09
2023-04-04T08:54:16.765Z,102489.69
2023-04-04T08:56:46.326Z,102501.59
2023-04-04T08:59:16.036Z,102489.66
2023-04-04T09:01:48.961Z,102485.31
2023-04-04T09:04:19.092Z,102503.50
2023-04-04T09:06:49.366Z,102482.09
2023-04-04T09:12:15.195Z,102503.78
2023-04-04T09:15:29.808Z,102511.28
2023-04-04T09:17:56.848Z,102517.84
2023-04-04T09:20:43.413Z,102521.19
2023-04-04T09:23:15.446Z,102501.81
2023-04-04T09:26:02.494Z,102495.66
2023-04-04T09:28:31.546Z,102503.66
2023-04-04T09:31:02.309Z,102510.22
2023-04-04T09:33:29.354Z,102504.50
2023-04-04T09:35:59.201Z,102505.94
2023-04-04T09:38:30.281Z,102494.25
2023-04-04T09:41:00.149Z,102490.50
2023-04-04T09:43:34.386Z,102488.06
2023-04-04T09:46:09.808Z,102485.59
2023-04-04T09:48:39.187Z,102503.50
2023-04-04T09:51:13.242Z,102489.03
2023-04-04T09:53:45.525Z,102479.69
2023-04-04T09:56:14.254Z,102483.44
2023-04-04T09:58:52.434Z,102472.09
2023-04-04T10:01:27.026Z,102499.31
2023-04-04T10:03:54.750Z,102485.09
2023-04-04T10:06:22.918Z,102459.63
2023-04-04T10:09:07.725Z,102472.44
2023-04-04T10:15:14.359Z,102471.00
2023-04-04T10:17:44.774Z,102459.53
2023-04-04T10:23:09.057Z,102450.56
2023-04-04T10:25:44.022Z,102460.69
2023-04-04T10:28:16.638Z,102441.97
2023-04-04T10:31:06.698Z,102440.47
2023-04-04T10:34:01.977Z,102466.56
2023-04-04T10:36:54.292Z,102442.03
2023-04-04T10:39:25.097Z,102458.53
2023-04-04T10:41:53.056Z,102465.72
2023-04-04T10:44:55.393Z,102461.19
2023-04-04T10:47:26.988Z,102454.47
2023-04-04T10:49:55.048Z,102443.91
2023-04-04T10:52:23.834Z,102452.78
2023-04-04T10:54:57.330Z,102444.91
2023-04-04T10:57:24.639Z,102448.63
2023-04-04T11:00:14.842Z,102443.91
2023-04-04T11:02:57.837Z,102438.06
2023-04-04T11:05:35.036Z,102430.59
2023-04-04T11:08:09.312Z,102441.53
2023-04-04T11:10:58.003Z,102433.97
2023-04-04T11:13:39.936Z,102428.84
2023-04-04T11:16:10.128Z,102427.00
2023-04-04T11:18:43.955Z,102437.31
2023-04-04T11:21:18.637Z,102426.22
2023-04-04T11:23:51.480Z,102422.75
2023-04-04T11:26:30.809Z,102425.78
2023-04-04T11:28:58.738Z,102415.34
2023-04-04T11:31:40.258Z,102409.22
2023-04-04T11:34:12.534Z,102411.72
2023-04-04T11:36:43.246Z,102403.53
2023-04-04T11:39:29.636Z,102411.72
2023-04-04T11:42:14.142Z,102407.81
2023-04-04T11:45:02.606Z,102404.53
2023-04-04T11:47:30.816Z,102387.78
2023-04-04T11:49:59.128Z,102386.91
2023-04-04T11:52:26.188Z,102384.81
2023-04-04T11:54:53.166Z,102390.09
2023-04-04T11:57:21.240Z,102390.25
2023-04-04T11:59:53.929Z,102374.34
2023-04-04T12:02:27.883Z,102374.25
2023-04-04T12:04:57.853Z,102369.25
2023-04-04T12:07:25.050Z,102370.59
2023-04-04T12:09:56.238Z,102363.00
2023-04-04T12:12:24.539Z,102353.22
2023-04-04T12:14:58.130Z,102344.41
2023-04-04T12:17:34.577Z,102356.88
2023-04-04T12:20:01.491Z,102356.66
2023-04-04T12:22:28.777Z,102349.50
2023-04-04T12:24:59.152Z,102360.50
2023-04-04T12:28:01.907Z,102355.47
2023-04-04T12:30:29.144Z,102356.63
2023-04-04T12:32:56.195Z,102354.31
2023-04-04T12:35:23.147Z,102338.88
2023-04-04T12:37:59.668Z,102344.34
2023-04-04T12:40:30.186Z,102352.31
2023-04-04T12:42:57.353Z,102352.88
2023-04-04T12:45:26.837Z,102334.34
2023-04-04T12:47:58.884Z,102341.59
2023-04-04T12:50:28.601Z,102330.13
2023-04-04T12:53:13.513Z,102339.84
2023-04-04T12:55:50.098Z,102329.00
2023-04-04T12:58:18.264Z,102324.00
2023-04-04T13:00:45.735Z,102323.81
2023-04-04T13:03:14.720Z,102309.78
2023-04-04T13:05:43.371Z,102310.09
2023-04-04T13:08:11.805Z,102304.53
2023-04-04T13:11:07.134Z,102310.88
2023-04-04T13:13:40.437Z,102305.25
2023-04-04T13:16:08.802Z,102308.59
2023-04-04T13:18:43.535Z,102301.81
2023-04-04T13:21:12.471Z,102303.09
2023-04-04T13:23:41.003Z,102300.47
2023-04-04T13:26:09.651Z,102309.16
2023-04-04T13:28:36.854Z,102292.94
2023-04-04T13:31:05.212Z,102294.91
2023-04-04T13:33:33.090Z,102287.22
2023-04-04T13:36:00.480Z,102280.13
2023-04-04T13:38:28.759Z,102268.41
2023-04-04T13:40:58.296Z,102262.88
2023-04-04T13:43:25.403Z,102268.66
2023-04-04T13:45:53.446Z,102261.47
2023-04-04T13:48:20.334Z,102249.66
2023-04-04T13:50:51.451Z,102257.66
2023-04-04T13:53:19.037Z,102246.00
2023-04-04T13:56:01.692Z,102253.78
2023-04-04T13:58:33.550Z,102240.25
2023-04-04T14:01:04.348Z,102240.13
2023-04-04T14:03:31.860Z,102244.41
2023-04-04T14:08:47.213Z,102231.31
2023-04-04T14:11:14.873Z,102222.72
2023-04-04T14:13:42.117Z,102226.53
2023-04-04T14:16:09.496Z,102230.97
2023-04-04T14:18:36.449Z,102235.66
2023-04-04T14:21:04.478Z,102232.25
2023-04-04T14:23:32.213Z,102227.91
2023-04-04T14:25:59.220Z,102205.84
2023-04-04T14:28:26.007Z,102223.19
2023-04-04T14:30:53.257Z,102227.78
2023-04-04T14:33:20.128Z,102215.72
2023-04-04T14:35:47.112Z,102203.16
2023-04-04T14:38:13.881Z,102206.38
2023-04-04T14:40:41.931Z,102192.13
2023-04-04T14:43:08.937Z,102197.09
2023-04-04T14:45:35.889Z,102201.31
2023-04-04T14:48:03.868Z,102192.41
2023-04-04T14:50:30.938Z,102188.97
2023-04-04T14:52:57.761Z,102189.19
2023-04-04T14:55:24.898Z,102190.06
2023-04-04T14:58:01.885Z,102185.69
2023-04-04T15:00:29.815Z,102188.81
2023-04-04T15:02:56.873Z,102185.38
2023-04-04T15:05:26.428Z,102180.09
2023-04-04T15:07:53.229Z,102175.69
2023-04-04T15:10:20.340Z,102185.22
2023-04-04T15:12:53.415Z,102182.38
2023-04-04T15:15:22.293Z,102177.66
2023-04-04T15:17:51.298Z,102175.72
2023-04-04T15:20:18.491Z,102161.56
2023-04-04T15:22:46.021Z,102170.88
2023-04-04T15:25:13.094Z,102170.47
2023-04-04T15:27:40.174Z,102165.13
2023-04-04T15:30:07.807Z,102167.44
2023-04-04T15:32:34.587Z,102170.31
2023-04-04T15:35:03.722Z,102168.19
2023-04-04T15:37:31.238Z,102157.63
2023-04-04T15:39:58.171Z,102152.69
2023-04-04T15:42:25.859Z,102160.00
2023-04-04T15:44:53.184Z,102157.47
2023-04-04T15:47:20.085Z,102159.09
2023-04-04T15:49:46.863Z,102162.78
2023-04-04T15:52:13.956Z,102160.69
2023-04-04T15:54:40.831Z,102157.31
2023-04-04T15:57:07.810Z,102148.63
2023-04-04T15:59:34.614Z,102155.16
2023-04-04T16:02:05.205Z,102134.00
2023-04-04T16:04:32.811Z,102147.41
2023-04-04T16:06:59.565Z,102132.22
2023-04-04T16:09:26.418Z,102134.75
2023-04-04T16:11:55.589Z,102140.59
2023-04-04T16:14:23.417Z,102125.88
2023-04-04T16:16:53.223Z,102130.72
2023-04-04T16:19:25.909Z,102128.81
2023-04-04T16:21:53.250Z,102127.84
2023-04-04T16:24:20.038Z,102122.56
2023-04-04T16:26:48.936Z,102123.22
2023-04-04T16:29:19.214Z,102115.81
2023-04-04T16:31:46.471Z,102105.03
2023-04-04T16:34:16.740Z,102116.06
2023-04-04T16:36:43.652Z,102108.44
2023-04-04T16:39:10.698Z,102097.28
2023-04-04T16:41:41.083Z,102102.56
2023-04-04T16:44:07.853Z,102106.63
2023-04-04T16:46:34.627Z,102104.25
2023-04-04T16:49:02.072Z,102114.34
2023-04-04T16:51:28.946Z,102110.50
2023-04-04T16:53:56.306Z,102103.91
2023-04-04T16:56:23.991Z,102100.56
2023-04-04T16:58:51.085Z,102104.53
2023-04-04T17:01:20.858Z,102094.22
2023-04-04T17:03:47.638Z,102096.44
2023-04-04T17:06:17.237Z,102093.38
2023-04-04T17:08:46.865Z,102091.69
2023-04-04T17:11:13.982Z,102099.69
2023-04-04T17:13:40.730Z,102094.63
2023-04-04T17:16:08.521Z,102089.84
2023-04-04T17:18:35.641Z,102102.25
2023-04-04T17:21:02.765Z,102094.81
2023-04-04T17:23:29.534Z,102097.91
2023-04-04T17:25:56.342Z,102089.16
2023-04-04T17:28:23.428Z,102107.97
2023-04-04T17:30:50.752Z,102110.03
2023-04-04T17:33:17.707Z,102098.56
2023-04-04T17:35:48.139Z,102103.25
2023-04-04T17:38:15.223Z,102100.06
2023-04-04T17:40:42.210Z,102105.97
2023-04-04T17:43:09.758Z,102105.59
2023-04-04T17:45:36.520Z,102105.22
2023-04-04T17:48:04.021Z,102106.34
2023-04-04T17:50:30.806Z,102105.88
2023-04-04T17:52:57.637Z,102110.94
2023-04-04T17:55:24.352Z,102109.34
2023-04-04T17:57:51.906Z,102113.81
2023-04-04T18:00:19.439Z,102107.94
2023-04-04T18:02:46.463Z,102106.47
2023-04-04T18:05:13.620Z,102100.72
2023-04-04T18:07:40.892Z,102110.34
2023-04-04T18:10:08.360Z,102098.72
2023-04-04T18:12:35.901Z,102097.78
2023-04-04T18:15:04.046Z,102091.31
2023-04-04T18:17:32.365Z,102094.97
2023-04-04T18:20:00.942Z,102087.16
2023-04-04T18:22:28.221Z,102102.44
2023-04-04T18:24:55.028Z,102097.81
2023-04-04T18:27:21.876Z,102103.84
2023-04-04T18:29:49.051Z,102098.69
2023-04-04T18:32:17.144Z,102084.75
2023-04-04T18:34:44.013Z,102101.09
2023-04-04T18:37:12.442Z,102096.22
2023-04-04T18:39:39.319Z,102108.78
2023-04-04T18:42:06.653Z,102097.06
2023-04-04T18:44:39.609Z,102109.34
2023-04-04T18:47:11.048Z,102107.31
2023-04-04T18:49:38.393Z,102100.50
2023-04-04T18:52:05.403Z,102107.50
2023-04-04T18:54:32.149Z,102097.72
2023-04-04T18:56:58.964Z,102113.94
2023-04-04T18:59:26.320Z,102116.19
2023-04-04T19:01:54.245Z,102118.13
2023-04-04T19:04:21.773Z,102113.16
2023-04-04T19:06:54.006Z,102118.31
2023-04-04T19:09:21.435Z,102123.75
2023-04-04T19:11:49.450Z,102125.00
2023-04-04T19:14:16.650Z,102118.94
2023-04-04T19:16:43.522Z,102111.16
2023-04-04T19:19:10.372Z,102116.50
2023-04-04T19:21:37.383Z,102112.41
2023-04-04T19:24:04.482Z,102114.75
2023-04-04T19:26:31.560Z,102121.31
2023-04-04T19:28:59.049Z,102118.84
2023-04-04T19:31:30.299Z,102110.28
2023-04-04T19:33:57.687Z,102128.50
2023-04-04T19:36:25.194Z,102135.03
2023-04-04T19:38:55.567Z,102125.41
2023-04-04T19:41:34.442Z,102133.72
2023-04-04T19:44:01.268Z,102130.84
2023-04-04T19:46:31.815Z,102137.91
2023-04-04T19:49:04.890Z,102135.38
2023-04-04T19:51:40.227Z,102135.03
2023-04-04T19:54:11.844Z,102138.44
2023-04-04T19:56:38.861Z,102134.22
2023-04-04T19:59:09.065Z,102140.53
2023-04-04T20:01:42.543Z,102140.31
2023-04-04T20:04:14.367Z,102136.34
2023-04-04T20:06:43.024Z,102129.28
2023-04-04T20:09:30.674Z,102143.34
2023-04-04T20:11:58.526Z,102136.03
2023-04-04T20:14:25.469Z,102130.16
2023-04-04T20:16:52.488Z,102133.09
2023-04-04T20:19:20.707Z,102131.41
2023-04-04T20:21:48.629Z,102135.75
2023-04-04T20:24:17.321Z,102139.34
2023-04-04T20:26:59.964Z,102137.44
2023-04-04T20:29:31.734Z,102141.56
2023-04-04T20:32:08.611Z,102135.00
2023-04-04T20:34:49.917Z,102142.50
2023-04-04T20:37:24.961Z,102135.69
2023-04-04T20:40:14.756Z,102129.50
2023-04-04T20:42:41.993Z,102130.09
2023-04-04T20:45:08.722Z,102139.91
2023-04-04T20:47:42.983Z,102136.59
2023-04-04T20:50:16.257Z,102141.03
2023-04-04T20:53:03.858Z,102126.31
2023-04-04T20:55:33.814Z,102127.53
2023-04-04T20:58:09.022Z,102129.16
2023-04-04T21:00:40.520Z,102132.03
2023-04-04T21:03:26.226Z,102130.88
2023-04-04T21:05:55.149Z,102132.31
2023-04-04T21:08:34.215Z,102132.56
2023-04-04T21:11:01.266Z,102126.59
2023-04-04T21:13:35.046Z,102127.03
2023-04-04T21:16:13.378Z,102121.03
2023-04-04T21:18:42.953Z,102112.44
2023-04-04T21:21:13.882Z,102120.72
2023-04-04T21:23:44.988Z,102124.75
2023-04-04T21:26:20.103Z,102124.63
2023-04-04T21:28:46.938Z,102112.69
2023-04-04T21:31:16.582Z,102117.56
2023-04-04T21:33:48.217Z,102111.41
2023-04-04T21:36:24.779Z,102112.75
2023-04-04T21:38:52.402Z,102105.44
2023-04-04T21:41:26.352Z,102101.13
2023-04-04T21:43:54.579Z,102099.25
2023-04-04T21:46:26.703Z,102103.66
2023-04-04T21:48:54.553Z,102101.53
2023-04-04T21:51:21.766Z,102096.38
2023-04-04T21:53:49.823Z,102101.59
2023-04-04T21:56:17.710Z,102099.44
2023-04-04T21:58:44.818Z,102091.22
2023-04-04T22:01:11.972Z,102101.09
2023-04-04T22:03:45.966Z,102099.56
2023-04-04T22:06:15.088Z,102087.59
2023-04-04T22:08:42.202Z,102089.97
2023-04-04T22:11:13.635Z,102099.97
2023-04-04T22:13:47.047Z,102094.41
2023-04-04T22:16:20.013Z,102094.47
2023-04-04T22:18:53.404Z,102084.44
2023-04-04T22:21:27.927Z,102087.44
2023-04-04T22:24:01.049Z,102085.53
2023-04-04T22:26:34.423Z,102082.00
2023-04-04T22:29:03.586Z,102078.56
2023-04-04T22:31:34.533Z,102075.25
2023-04-04T22:34:03.295Z,102080.34
2023-04-04T22:36:30.576Z,102084.78
2023-04-04T22:38:58.403Z,102072.81
2023-04-04T22:41:27.762Z,102076.06
2023-04-04T22:43:56.392Z,102073.34
2023-04-04T22:46:23.797Z,102076.38
2023-04-04T22:48:51.055Z,102061.56
2023-04-04T22:51:17.884Z,102056.78
2023-04-04T22:53:45.921Z,102050.25
2023-04-04T22:56:12.700Z,102048.91
2023-04-04T22:58:39.629Z,102045.31
2023-04-04T23:01:06.703Z,102050.94
2023-04-04T23:03:33.714Z,102060.91
2023-04-04T23:06:00.732Z,102056.84
2023-04-04T23:08:27.557Z,102054.19
2023-04-04T23:10:54.382Z,102042.13
2023-04-04T23:13:21.887Z,102052.56
2023-04-04T23:15:49.508Z,102048.47
2023-04-04T23:18:16.283Z,102048.22
2023-04-04T23:20:43.459Z,102054.41
2023-04-04T23:23:10.678Z,102056.59
2023-04-04T23:25:37.602Z,102049.59
2023-04-04T23:28:04.349Z,102047.97
2023-04-04T23:30:31.711Z,102048.78
2023-04-04T23:32:58.480Z,102037.91
2023-04-04T23:35:25.227Z,102043.91
2023-04-04T23:37:52.099Z,102037.97
2023-04-04T23:40:18.915Z,102030.16
2023-04-04T23:42:46.001Z,102032.28
2023-04-04T23:45:13.325Z,102033.38
2023-04-04T23:47:40.777Z,102033.91
2023-04-04T23:50:08.193Z,102029.88
2023-04-04T23:52:35.403Z,102036.38
2023-04-04T23:55:02.156Z,102038.25
2023-04-04T23:57:29.046Z,102038.25
2023-04-04T23:59:55.974Z,102030.41
